createdAt,value
2023-03-22T00:00:00.618Z,19.00
2023-03-22T00:05:04.921Z,18.65
2023-03-22T00:10:08.387Z,18.70
2023-03-22T00:15:12.009Z,18.10
2023-03-22T00:20:19.620Z,18.07
2023-03-22T00:25:23.094Z,18.05
2023-03-22T00:30:25.760Z,18.67
2023-03-22T00:35:29.592Z,18.20
2023-03-22T00:40:32.318Z,17.90
2023-03-22T00:45:36.241Z,17.90
2023-03-22T00:50:41.695Z,18.77
2023-03-22T00:55:44.194Z,18.55
2023-03-22T01:00:46.769Z,18.58
2023-03-22T01:05:55.235Z,18.27
2023-03-22T01:10:57.729Z,18.10
2023-03-22T01:16:00.252Z,18.45
2023-03-22T01:21:04.155Z,17.40
2023-03-22T01:26:07.198Z,17.90
2023-03-22T01:31:09.716Z,17.15
2023-03-22T01:36:13.644Z,17.02
2023-03-22T01:41:17.126Z,16.40
2023-03-22T01:46:19.617Z,16.67
2023-03-22T01:51:25.878Z,15.38
2023-03-22T01:56:32.274Z,15.70
2023-03-22T02:01:36.231Z,15.40
2023-03-22T02:06:40.312Z,15.40
2023-03-22T02:11:45.037Z,16.23
2023-03-22T02:16:57.939Z,15.43
2023-03-22T02:22:30.745Z,16.23
2023-03-22T02:27:47.288Z,15.30
2023-03-22T02:33:06.593Z,15.63
2023-03-22T02:38:59.709Z,15.43
2023-03-22T02:44:09.923Z,16.08
2023-03-22T02:49:21.020Z,15.10
2023-03-22T02:54:29.556Z,15.97
2023-03-22T02:59:37.436Z,15.13
2023-03-22T03:04:45.598Z,15.93
2023-03-22T03:09:51.216Z,14.73
2023-03-22T03:14:53.766Z,15.45
2023-03-22T03:20:12.124Z,15.27
2023-03-22T03:25:30.211Z,15.23
2023-03-22T03:30:40.661Z,15.43
2023-03-22T03:35:50.720Z,16.83
2023-03-22T03:41:00.037Z,15.90
2023-03-22T03:46:02.897Z,15.73
2023-03-22T03:51:05.679Z,16.42
2023-03-22T03:56:10.014Z,16.25
2023-03-22T04:01:12.653Z,15.77
2023-03-22T04:06:15.138Z,15.90
2023-03-22T04:11:18.975Z,16.63
2023-03-22T04:16:24.931Z,16.20
2023-03-22T04:21:27.534Z,15.80
2023-03-22T04:26:31.578Z,16.35
2023-03-22T04:31:35.672Z,16.27
2023-03-22T04:36:39.860Z,16.57
2023-03-22T04:41:43.717Z,16.40
2023-03-22T04:46:46.270Z,16.50
2023-03-22T04:51:51.814Z,15.70
2023-03-22T04:56:55.716Z,16.05
2023-03-22T05:01:58.293Z,14.63
2023-03-22T05:07:00.929Z,15.37
2023-03-22T05:12:04.820Z,15.75
2023-03-22T05:17:07.301Z,15.65
2023-03-22T05:22:11.895Z,14.87
2023-03-22T05:27:15.707Z,14.93
2023-03-22T05:32:18.313Z,15.30
2023-03-22T05:37:21.061Z,15.45
2023-03-22T05:42:24.858Z,14.93
2023-03-22T05:47:27.331Z,14.52
2023-03-22T05:52:29.846Z,14.52
2023-03-22T05:57:33.906Z,14.30
2023-03-22T06:02:36.779Z,14.07
2023-03-22T06:07:39.835Z,14.48
2023-03-22T06:12:43.696Z,13.93
2023-03-22T06:17:46.428Z,15.03
2023-03-22T06:22:48.913Z,13.50
2023-03-22T06:27:52.749Z,13.40
2023-03-22T06:32:55.338Z,13.43
2023-03-22T06:37:57.957Z,12.73
2023-03-22T06:43:05.150Z,12.88
2023-03-22T06:48:08.944Z,13.07
2023-03-22T06:53:11.469Z,13.10
2023-03-22T06:58:15.273Z,13.27
2023-03-22T07:03:17.726Z,12.47
2023-03-22T07:08:20.270Z,12.53
2023-03-22T07:13:24.255Z,12.30
2023-03-22T07:18:27.571Z,12.18
2023-03-22T07:23:30.121Z,11.80
2023-03-22T07:28:34.311Z,12.75
2023-03-22T07:33:36.834Z,11.38
2023-03-22T07:38:39.358Z,11.80
2023-03-22T07:43:54.020Z,10.73
2023-03-22T07:48:57.842Z,10.15
2023-03-22T07:54:00.364Z,10.43
2023-03-22T07:59:04.309Z,10.73
2023-03-22T08:04:06.860Z,9.52
2023-03-22T08:09:09.487Z,8.88
2023-03-22T08:14:13.280Z,8.13
2023-03-22T08:19:15.901Z,8.02
2023-03-22T08:24:18.377Z,7.93
2023-03-22T08:29:23.566Z,7.80
2023-03-22T08:34:26.076Z,7.47
2023-03-22T08:39:28.569Z,7.47
2023-03-22T08:44:32.833Z,6.87
2023-03-22T08:49:35.689Z,7.50
2023-03-22T08:54:38.636Z,6.88
2023-03-22T08:59:42.491Z,6.70
2023-03-22T09:04:45.024Z,7.30
2023-03-22T09:09:47.680Z,7.47
2023-03-22T09:14:51.756Z,6.80
2023-03-22T09:20:06.024Z,7.63
2023-03-22T09:25:13.831Z,7.38
2023-03-22T09:30:17.664Z,6.90
2023-03-22T09:35:20.221Z,7.63
2023-03-22T09:40:26.734Z,7.50
2023-03-22T09:45:38.376Z,7.20
2023-03-22T09:50:46.460Z,7.78
2023-03-22T09:55:55.892Z,7.50
2023-03-22T10:01:03.401Z,7.93
2023-03-22T10:06:09.896Z,8.00
2023-03-22T10:11:22.288Z,8.20
2023-03-22T10:16:29.613Z,7.97
2023-03-22T10:21:33.889Z,8.77
2023-03-22T10:26:40.485Z,8.40
2023-03-22T10:31:45.933Z,8.00
2023-03-22T10:36:51.832Z,7.72
2023-03-22T10:41:57.970Z,7.85
2023-03-22T10:47:08.026Z,7.57
2023-03-22T10:52:24.832Z,7.53
2023-03-22T10:57:27.403Z,7.57
2023-03-22T11:02:32.807Z,7.33
2023-03-22T11:07:38.070Z,6.63
2023-03-22T11:12:43.547Z,6.20
2023-03-22T11:17:47.618Z,5.90
2023-03-22T11:22:52.069Z,5.63
2023-03-22T11:27:56.794Z,5.60
2023-03-22T11:33:17.558Z,5.53
2023-03-22T11:38:29.451Z,5.87
2023-03-22T11:43:38.567Z,5.60
2023-03-22T11:48:43.488Z,5.22
2023-03-22T11:53:48.689Z,5.93
2023-03-22T11:58:59.922Z,6.00
2023-03-22T12:04:09.654Z,6.75
2023-03-22T12:09:23.127Z,5.83
2023-03-22T12:14:29.592Z,7.10
2023-03-22T12:19:46.277Z,6.97
2023-03-22T12:24:48.951Z,6.93
2023-03-22T12:29:57.558Z,6.10
2023-03-22T12:35:18.084Z,6.60
2023-03-22T12:40:25.119Z,6.10
2023-03-22T12:45:30.102Z,5.70
2023-03-22T12:50:38.052Z,5.85
2023-03-22T12:55:41.975Z,5.70
2023-03-22T13:00:49.636Z,4.90
2023-03-22T13:06:03.046Z,5.37
2023-03-22T13:11:06.284Z,5.05
2023-03-22T13:16:19.300Z,4.90
2023-03-22T13:21:24.539Z,4.40
2023-03-22T13:26:34.494Z,4.53
2023-03-22T13:31:41.715Z,4.10
2023-03-22T13:36:53.695Z,4.13
2023-03-22T13:42:06.983Z,4.18
2023-03-22T13:47:30.587Z,4.00
2023-03-22T13:52:41.242Z,4.40
2023-03-22T13:57:50.816Z,3.80
2023-03-22T14:02:55.017Z,3.85
2023-03-22T14:08:01.041Z,4.03
2023-03-22T14:13:06.785Z,3.40
2023-03-22T14:18:15.764Z,3.60
